sensor_id;sensor_type;location;lat;lon;timestamp;pressure;altitude;pressure_sealevel;temperature;humidity
56831;BME280;42713;42.676;23.352;2023-05-10T00:01:16;95048.13;;;11.37;75.76
56831;BME280;42713;42.676;23.352;2023-05-10T00:03:41;95044.16;;;11.34;75.30
56831;BME280;42713;42.676;23.352;2023-05-10T00:06:07;95044.69;;;11.36;75.08
56831;BME280;42713;42.676;23.352;2023-05-10T00:08:32;95045.25;;;11.39;75.32
56831;BME280;42713;42.676;23.352;2023-05-10T00:10:57;95037.09;;;11.35;75.36
56831;BME280;42713;42.676;23.352;2023-05-10T00:13:23;95035.50;;;11.34;75.36
56831;BME280;42713;42.676;23.352;2023-05-10T00:15:49;95032.31;;;11.32;75.75
56831;BME280;42713;42.676;23.352;2023-05-10T00:18:14;95034.94;;;11.32;75.69
56831;BME280;42713;42.676;23.352;2023-05-10T00:20:40;95029.38;;;11.28;75.07
56831;BME280;42713;42.676;23.352;2023-05-10T00:23:05;95031.78;;;11.30;75.13
56831;BME280;42713;42.676;23.352;2023-05-10T00:25:32;95031.69;;;11.25;74.40
56831;BME280;42713;42.676;23.352;2023-05-10T00:27:57;95030.91;;;11.24;75.06
56831;BME280;42713;42.676;23.352;2023-05-10T00:30:23;95022.78;;;11.26;75.04
56831;BME280;42713;42.676;23.352;2023-05-10T00:32:49;95033.22;;;11.20;74.74
56831;BME280;42713;42.676;23.352;2023-05-10T00:35:15;95025.25;;;11.15;75.73
56831;BME280;42713;42.676;23.352;2023-05-10T00:37:41;95029.22;;;11.18;75.09
56831;BME280;42713;42.676;23.352;2023-05-10T00:40:07;95023.44;;;11.16;74.71
56831;BME280;42713;42.676;23.352;2023-05-10T00:42:33;95019.75;;;11.17;75.43
56831;BME280;42713;42.676;23.352;2023-05-10T00:44:59;95021.59;;;11.16;75.35
56831;BME280;42713;42.676;23.352;2023-05-10T00:47:24;95021.53;;;11.11;74.67
56831;BME280;42713;42.676;23.352;2023-05-10T00:49:50;95013.09;;;11.09;75.37
56831;BME280;42713;42.676;23.352;2023-05-10T00:52:16;95016.75;;;11.08;74.93
56831;BME280;42713;42.676;23.352;2023-05-10T00:54:41;95014.13;;;11.08;74.73
56831;BME280;42713;42.676;23.352;2023-05-10T00:57:07;95006.16;;;11.03;74.47
56831;BME280;42713;42.676;23.352;2023-05-10T00:59:32;95023.28;;;11.05;74.84
56831;BME280;42713;42.676;23.352;2023-05-10T01:01:58;95008.56;;;11.04;74.19
56831;BME280;42713;42.676;23.352;2023-05-10T01:04:23;95015.63;;;11.04;74.23
56831;BME280;42713;42.676;23.352;2023-05-10T01:06:52;95012.38;;;10.97;74.24
56831;BME280;42713;42.676;23.352;2023-05-10T01:09:20;95009.75;;;10.97;75.04
56831;BME280;42713;42.676;23.352;2023-05-10T01:11:47;95010.44;;;10.92;74.83
56831;BME280;42713;42.676;23.352;2023-05-10T01:14:13;95009.44;;;10.93;74.29
56831;BME280;42713;42.676;23.352;2023-05-10T01:16:41;95009.44;;;10.93;74.17
56831;BME280;42713;42.676;23.352;2023-05-10T01:19:17;95000.94;;;10.86;74.55
56831;BME280;42713;42.676;23.352;2023-05-10T01:24:59;95002.75;;;10.85;74.09
56831;BME280;42713;42.676;23.352;2023-05-10T01:27:47;94999.34;;;10.85;74.92
56831;BME280;42713;42.676;23.352;2023-05-10T01:36:32;94995.28;;;10.77;74.73
56831;BME280;42713;42.676;23.352;2023-05-10T01:39:11;95005.75;;;10.77;74.68
56831;BME280;42713;42.676;23.352;2023-05-10T01:41:49;94990.81;;;10.78;74.90
56831;BME280;42713;42.676;23.352;2023-05-10T01:44:42;94992.41;;;10.79;75.63
56831;BME280;42713;42.676;23.352;2023-05-10T01:47:28;94984.78;;;10.77;74.71
56831;BME280;42713;42.676;23.352;2023-05-10T01:49:56;94987.72;;;10.81;74.10
56831;BME280;42713;42.676;23.352;2023-05-10T01:52:32;94989.00;;;10.78;74.98
56831;BME280;42713;42.676;23.352;2023-05-10T01:55:06;94987.66;;;10.76;74.24
56831;BME280;42713;42.676;23.352;2023-05-10T01:57:35;94993.94;;;10.74;74.14
56831;BME280;42713;42.676;23.352;2023-05-10T02:00:02;94987.56;;;10.70;74.46
56831;BME280;42713;42.676;23.352;2023-05-10T02:02:44;94988.13;;;10.72;74.37
56831;BME280;42713;42.676;23.352;2023-05-10T02:05:12;94991.53;;;10.73;74.84
56831;BME280;42713;42.676;23.352;2023-05-10T02:07:38;94988.91;;;10.73;74.06
56831;BME280;42713;42.676;23.352;2023-05-10T02:10:06;94998.84;;;10.71;73.26
56831;BME280;42713;42.676;23.352;2023-05-10T02:12:39;94998.28;;;10.69;72.99
56831;BME280;42713;42.676;23.352;2023-05-10T02:15:07;94995.56;;;10.64;72.84
56831;BME280;42713;42.676;23.352;2023-05-10T02:17:34;94992.28;;;10.56;70.96
56831;BME280;42713;42.676;23.352;2023-05-10T02:20:02;95003.16;;;10.48;71.12
56831;BME280;42713;42.676;23.352;2023-05-10T02:22:29;94993.94;;;10.34;70.93
56831;BME280;42713;42.676;23.352;2023-05-10T02:24:58;94998.31;;;10.28;70.20
56831;BME280;42713;42.676;23.352;2023-05-10T02:27:25;94998.66;;;10.20;70.25
56831;BME280;42713;42.676;23.352;2023-05-10T02:29:53;94990.59;;;10.09;69.19
56831;BME280;42713;42.676;23.352;2023-05-10T02:32:21;95002.81;;;10.04;69.73
56831;BME280;42713;42.676;23.352;2023-05-10T02:34:48;95006.13;;;9.99;69.65
56831;BME280;42713;42.676;23.352;2023-05-10T02:37:19;94999.44;;;9.91;70.39
56831;BME280;42713;42.676;23.352;2023-05-10T02:39:47;95006.72;;;9.89;68.27
56831;BME280;42713;42.676;23.352;2023-05-10T02:42:16;94995.91;;;9.86;69.12
56831;BME280;42713;42.676;23.352;2023-05-10T02:44:43;94998.28;;;9.87;68.05
56831;BME280;42713;42.676;23.352;2023-05-10T02:47:10;95007.41;;;9.85;67.96
56831;BME280;42713;42.676;23.352;2023-05-10T02:49:36;94996.84;;;9.79;67.62
56831;BME280;42713;42.676;23.352;2023-05-10T02:52:05;95002.53;;;9.76;67.86
56831;BME280;42713;42.676;23.352;2023-05-10T02:54:36;94990.13;;;9.72;68.33
56831;BME280;42713;42.676;23.352;2023-05-10T02:57:05;94985.34;;;9.69;67.93
56831;BME280;42713;42.676;23.352;2023-05-10T02:59:31;94984.25;;;9.64;67.62
56831;BME280;42713;42.676;23.352;2023-05-10T03:01:59;94991.19;;;9.59;67.51
56831;BME280;42713;42.676;23.352;2023-05-10T03:04:25;95001.63;;;9.59;68.61
56831;BME280;42713;42.676;23.352;2023-05-10T03:06:51;94998.00;;;9.60;68.29
56831;BME280;42713;42.676;23.352;2023-05-10T03:09:17;94996.41;;;9.59;68.42
56831;BME280;42713;42.676;23.352;2023-05-10T03:11:54;95002.31;;;9.54;68.15
56831;BME280;42713;42.676;23.352;2023-05-10T03:14:42;95002.09;;;9.56;68.26
56831;BME280;42713;42.676;23.352;2023-05-10T03:20:04;95002.41;;;9.59;68.13
56831;BME280;42713;42.676;23.352;2023-05-10T03:22:42;95005.84;;;9.60;68.03
56831;BME280;42713;42.676;23.352;2023-05-10T03:25:15;95006.97;;;9.64;68.32
56831;BME280;42713;42.676;23.352;2023-05-10T03:27:43;94999.69;;;9.66;68.98
56831;BME280;42713;42.676;23.352;2023-05-10T03:30:11;95006.72;;;9.65;69.14
56831;BME280;42713;42.676;23.352;2023-05-10T03:32:37;95007.41;;;9.61;69.23
56831;BME280;42713;42.676;23.352;2023-05-10T03:35:10;95011.06;;;9.60;69.13
56831;BME280;42713;42.676;23.352;2023-05-10T03:37:36;95008.78;;;9.63;69.63
56831;BME280;42713;42.676;23.352;2023-05-10T03:40:03;95019.00;;;9.65;67.92
56831;BME280;42713;42.676;23.352;2023-05-10T03:42:28;95010.38;;;9.64;67.90
56831;BME280;42713;42.676;23.352;2023-05-10T03:44:54;95009.34;;;9.65;67.94
56831;BME280;42713;42.676;23.352;2023-05-10T03:47:19;95014.13;;;9.69;67.68
56831;BME280;42713;42.676;23.352;2023-05-10T03:49:45;95009.69;;;9.69;67.54
56831;BME280;42713;42.676;23.352;2023-05-10T03:52:10;95013.53;;;9.66;66.86
56831;BME280;42713;42.676;23.352;2023-05-10T03:54:36;95015.47;;;9.71;67.06
56831;BME280;42713;42.676;23.352;2023-05-10T03:57:01;95017.53;;;9.69;66.67
56831;BME280;42713;42.676;23.352;2023-05-10T03:59:28;95021.72;;;9.70;66.76
56831;BME280;42713;42.676;23.352;2023-05-10T04:01:53;95021.97;;;9.69;66.47
56831;BME280;42713;42.676;23.352;2023-05-10T04:04:19;95026.75;;;9.72;66.80
56831;BME280;42713;42.676;23.352;2023-05-10T04:06:46;95030.47;;;9.76;67.33
56831;BME280;42713;42.676;23.352;2023-05-10T04:09:11;95016.94;;;9.79;67.58
56831;BME280;42713;42.676;23.352;2023-05-10T04:11:37;95029.25;;;9.78;66.82
56831;BME280;42713;42.676;23.352;2023-05-10T04:14:02;95023.53;;;9.81;67.00
56831;BME280;42713;42.676;23.352;2023-05-10T04:16:28;95034.34;;;9.85;66.03
56831;BME280;42713;42.676;23.352;2023-05-10T04:18:53;95035.03;;;9.80;66.64
56831;BME280;42713;42.676;23.352;2023-05-10T04:21:19;95029.00;;;9.80;66.83
56831;BME280;42713;42.676;23.352;2023-05-10T04:23:44;95033.47;;;9.79;66.92
56831;BME280;42713;42.676;23.352;2023-05-10T04:26:10;95036.63;;;9.81;66.39
56831;BME280;42713;42.676;23.352;2023-05-10T04:28:35;95043.13;;;9.79;66.79
56831;BME280;42713;42.676;23.352;2023-05-10T04:31:07;95038.34;;;9.76;65.94
56831;BME280;42713;42.676;23.352;2023-05-10T04:33:40;95033.91;;;9.76;66.70
56831;BME280;42713;42.676;23.352;2023-05-10T04:36:16;95036.97;;;9.73;66.64
56831;BME280;42713;42.676;23.352;2023-05-10T04:38:41;95031.97;;;9.72;66.31
56831;BME280;42713;42.676;23.352;2023-05-10T04:41:08;95041.63;;;9.71;66.65
56831;BME280;42713;42.676;23.352;2023-05-10T04:43:34;95040.63;;;9.72;67.03
56831;BME280;42713;42.676;23.352;2023-05-10T04:46:00;95039.00;;;9.71;67.57
56831;BME280;42713;42.676;23.352;2023-05-10T04:48:26;95038.00;;;9.72;66.87
56831;BME280;42713;42.676;23.352;2023-05-10T04:50:51;95029.56;;;9.70;66.93
56831;BME280;42713;42.676;23.352;2023-05-10T04:53:16;95033.56;;;9.73;67.27
56831;BME280;42713;42.676;23.352;2023-05-10T04:55:43;95039.59;;;9.73;66.18
56831;BME280;42713;42.676;23.352;2023-05-10T04:58:08;95035.28;;;9.67;66.43
56831;BME280;42713;42.676;23.352;2023-05-10T05:00:34;95040.28;;;9.69;67.29
56831;BME280;42713;42.676;23.352;2023-05-10T05:02:59;95030.38;;;9.71;67.26
56831;BME280;42713;42.676;23.352;2023-05-10T05:05:25;95034.34;;;9.73;67.00
56831;BME280;42713;42.676;23.352;2023-05-10T05:07:50;95037.53;;;9.75;66.59
56831;BME280;42713;42.676;23.352;2023-05-10T05:10:16;95039.13;;;9.76;66.52
56831;BME280;42713;42.676;23.352;2023-05-10T05:12:42;95037.88;;;9.79;66.73
56831;BME280;42713;42.676;23.352;2023-05-10T05:15:07;95039.72;;;9.78;66.58
56831;BME280;42713;42.676;23.352;2023-05-10T05:17:35;95046.06;;;9.82;66.84
56831;BME280;42713;42.676;23.352;2023-05-10T05:20:00;95044.81;;;9.85;67.00
56831;BME280;42713;42.676;23.352;2023-05-10T05:22:25;95047.78;;;9.89;66.89
56831;BME280;42713;42.676;23.352;2023-05-10T05:24:57;95049.34;;;9.90;66.95
56831;BME280;42713;42.676;23.352;2023-05-10T05:27:24;95042.31;;;9.90;67.37
56831;BME280;42713;42.676;23.352;2023-05-10T05:29:56;95046.53;;;9.91;67.40
56831;BME280;42713;42.676;23.352;2023-05-10T05:32:22;95054.38;;;9.91;66.43
56831;BME280;42713;42.676;23.352;2023-05-10T05:34:48;95054.38;;;9.91;66.71
56831;BME280;42713;42.676;23.352;2023-05-10T05:37:19;95050.28;;;9.84;67.34
56831;BME280;42713;42.676;23.352;2023-05-10T05:39:44;95055.25;;;9.85;67.68
56831;BME280;42713;42.676;23.352;2023-05-10T05:42:11;95062.09;;;9.86;67.06
56831;BME280;42713;42.676;23.352;2023-05-10T05:44:37;95055.25;;;9.85;67.04
56831;BME280;42713;42.676;23.352;2023-05-10T05:47:03;95062.56;;;9.83;66.84
56831;BME280;42713;42.676;23.352;2023-05-10T05:49:30;95055.50;;;9.84;67.25
56831;BME280;42713;42.676;23.352;2023-05-10T05:51:59;95061.75;;;9.82;67.13
56831;BME280;42713;42.676;23.352;2023-05-10T05:54:26;95062.56;;;9.83;67.17
56831;BME280;42713;42.676;23.352;2023-05-10T05:56:54;95057.34;;;9.83;67.33
56831;BME280;42713;42.676;23.352;2023-05-10T05:59:21;95062.00;;;9.81;68.42
56831;BME280;42713;42.676;23.352;2023-05-10T06:01:47;95067.81;;;9.83;67.70
56831;BME280;42713;42.676;23.352;2023-05-10T06:04:16;95060.75;;;9.84;68.15
56831;BME280;42713;42.676;23.352;2023-05-10T06:06:42;95067.31;;;9.86;67.99
56831;BME280;42713;42.676;23.352;2023-05-10T06:09:08;95070.19;;;9.85;68.01
56831;BME280;42713;42.676;23.352;2023-05-10T06:11:34;95064.38;;;9.82;67.99
56831;BME280;42713;42.676;23.352;2023-05-10T06:14:01;95068.00;;;9.81;68.24
56831;BME280;42713;42.676;23.352;2023-05-10T06:16:27;95067.56;;;9.85;68.10
56831;BME280;42713;42.676;23.352;2023-05-10T06:18:53;95072.00;;;9.84;68.51
56831;BME280;42713;42.676;23.352;2023-05-10T06:21:18;95068.34;;;9.85;68.10
56831;BME280;42713;42.676;23.352;2023-05-10T06:23:43;95072.56;;;9.86;68.68
56831;BME280;42713;42.676;23.352;2023-05-10T06:26:09;95066.31;;;9.87;68.62
56831;BME280;42713;42.676;23.352;2023-05-10T06:28:35;95070.53;;;9.88;68.00
56831;BME280;42713;42.676;23.352;2023-05-10T06:31:03;95075.50;;;9.90;67.47
56831;BME280;42713;42.676;23.352;2023-05-10T06:33:29;95081.09;;;9.93;67.36
56831;BME280;42713;42.676;23.352;2023-05-10T06:35:54;95087.91;;;9.94;67.56
56831;BME280;42713;42.676;23.352;2023-05-10T06:38:20;95079.84;;;9.96;67.67
56831;BME280;42713;42.676;23.352;2023-05-10T06:40:45;95069.59;;;9.94;67.30
56831;BME280;42713;42.676;23.352;2023-05-10T06:43:10;95074.63;;;9.96;67.42
56831;BME280;42713;42.676;23.352;2023-05-10T06:45:36;95077.22;;;9.96;67.30
56831;BME280;42713;42.676;23.352;2023-05-10T06:48:01;95079.59;;;9.97;66.71
56831;BME280;42713;42.676;23.352;2023-05-10T06:50:27;95072.44;;;9.93;66.39
56831;BME280;42713;42.676;23.352;2023-05-10T06:52:53;95073.03;;;9.95;66.16
56831;BME280;42713;42.676;23.352;2023-05-10T06:55:18;95072.22;;;9.94;66.22
56831;BME280;42713;42.676;23.352;2023-05-10T06:57:44;95078.81;;;9.97;65.91
56831;BME280;42713;42.676;23.352;2023-05-10T07:00:10;95082.03;;;9.99;66.03
56831;BME280;42713;42.676;23.352;2023-05-10T07:02:35;95074.94;;;10.00;65.13
56831;BME280;42713;42.676;23.352;2023-05-10T07:05:01;95085.75;;;10.03;65.67
56831;BME280;42713;42.676;23.352;2023-05-10T07:07:27;95083.38;;;10.02;65.43
56831;BME280;42713;42.676;23.352;2023-05-10T07:09:54;95088.38;;;10.03;65.22
56831;BME280;42713;42.676;23.352;2023-05-10T07:12:19;95085.19;;;10.01;64.63
56831;BME280;42713;42.676;23.352;2023-05-10T07:14:45;95085.09;;;9.96;64.77
56831;BME280;42713;42.676;23.352;2023-05-10T07:17:11;95085.28;;;9.94;65.27
56831;BME280;42713;42.676;23.352;2023-05-10T07:19:37;95083.94;;;9.92;64.28
56831;BME280;42713;42.676;23.352;2023-05-10T07:22:02;95091.44;;;9.88;64.66
56831;BME280;42713;42.676;23.352;2023-05-10T07:24:28;95083.34;;;9.90;64.75
56831;BME280;42713;42.676;23.352;2023-05-10T07:26:54;95093.38;;;9.93;64.05
56831;BME280;42713;42.676;23.352;2023-05-10T07:29:19;95094.97;;;9.94;64.27
56831;BME280;42713;42.676;23.352;2023-05-10T07:31:45;95093.13;;;9.94;64.36
56831;BME280;42713;42.676;23.352;2023-05-10T07:34:10;95091.56;;;9.93;64.69
56831;BME280;42713;42.676;23.352;2023-05-10T07:36:36;95097.47;;;10.01;64.63
56831;BME280;42713;42.676;23.352;2023-05-10T07:39:02;95104.66;;;10.05;63.81
56831;BME280;42713;42.676;23.352;2023-05-10T07:41:27;95102.59;;;10.07;64.60
56831;BME280;42713;42.676;23.352;2023-05-10T07:43:52;95106.81;;;10.08;64.21
56831;BME280;42713;42.676;23.352;2023-05-10T07:46:18;95102.13;;;10.10;64.67
56831;BME280;42713;42.676;23.352;2023-05-10T07:48:45;95097.22;;;10.14;64.78
56831;BME280;42713;42.676;23.352;2023-05-10T07:51:10;95097.00;;;10.16;64.61
56831;BME280;42713;42.676;23.352;2023-05-10T07:53:36;95100.19;;;10.18;64.79
56831;BME280;42713;42.676;23.352;2023-05-10T07:56:22;95106.78;;;10.20;64.24
56831;BME280;42713;42.676;23.352;2023-05-10T07:58:47;95111.00;;;10.21;64.05
56831;BME280;42713;42.676;23.352;2023-05-10T08:01:13;95104.75;;;10.22;63.31
56831;BME280;42713;42.676;23.352;2023-05-10T08:03:38;95108.97;;;10.23;63.14
56831;BME280;42713;42.676;23.352;2023-05-10T08:06:04;95110.88;;;10.28;63.26
56831;BME280;42713;42.676;23.352;2023-05-10T08:08:29;95110.53;;;10.24;63.87
56831;BME280;42713;42.676;23.352;2023-05-10T08:10:55;95113.25;;;10.30;63.59
56831;BME280;42713;42.676;23.352;2023-05-10T08:13:21;95114.84;;;10.31;63.20
56831;BME280;42713;42.676;23.352;2023-05-10T08:15:46;95113.59;;;10.33;63.72
56831;BME280;42713;42.676;23.352;2023-05-10T08:18:12;95113.03;;;10.31;62.89
56831;BME280;42713;42.676;23.352;2023-05-10T08:20:38;95103.91;;;10.34;62.58
56831;BME280;42713;42.676;23.352;2023-05-10T08:23:03;95108.34;;;10.33;63.00
56831;BME280;42713;42.676;23.352;2023-05-10T08:25:29;95116.78;;;10.35;62.73
56831;BME280;42713;42.676;23.352;2023-05-10T08:27:54;95110.53;;;10.36;62.77
56831;BME280;42713;42.676;23.352;2023-05-10T08:30:20;95123.16;;;10.39;63.50
56831;BME280;42713;42.676;23.352;2023-05-10T08:32:45;95112.34;;;10.36;62.98
56831;BME280;42713;42.676;23.352;2023-05-10T08:35:11;95119.84;;;10.44;63.29
56831;BME280;42713;42.676;23.352;2023-05-10T08:37:36;95113.13;;;10.48;62.90
56831;BME280;42713;42.676;23.352;2023-05-10T08:40:02;95115.50;;;10.50;63.71
56831;BME280;42713;42.676;23.352;2023-05-10T08:42:30;95108.00;;;10.53;64.34
56831;BME280;42713;42.676;23.352;2023-05-10T08:44:57;95117.81;;;10.58;64.41
56831;BME280;42713;42.676;23.352;2023-05-10T08:47:23;95118.91;;;10.62;64.89
56831;BME280;42713;42.676;23.352;2023-05-10T08:49:50;95107.41;;;10.63;64.30
56831;BME280;42713;42.676;23.352;2023-05-10T08:52:18;95120.84;;;10.67;64.81
56831;BME280;42713;42.676;23.352;2023-05-10T08:54:43;95112.41;;;10.65;65.17
56831;BME280;42713;42.676;23.352;2023-05-10T08:57:10;95128.25;;;10.70;65.03
56831;BME280;42713;42.676;23.352;2023-05-10T08:59:36;95118.66;;;10.76;65.87
56831;BME280;42713;42.676;23.352;2023-05-10T09:02:05;95111.13;;;10.79;65.11
56831;BME280;42713;42.676;23.352;2023-05-10T09:04:31;95108.81;;;10.83;64.19
56831;BME280;42713;42.676;23.352;2023-05-10T09:06:57;95114.16;;;10.88;64.11
56831;BME280;42713;42.676;23.352;2023-05-10T09:09:23;95105.13;;;10.96;65.83
56831;BME280;42713;42.676;23.352;2023-05-10T09:11:49;95113.94;;;10.89;65.06
56831;BME280;42713;42.676;23.352;2023-05-10T09:14:15;95107.88;;;10.89;64.88
56831;BME280;42713;42.676;23.352;2023-05-10T09:16:41;95106.06;;;10.89;64.83
56831;BME280;42713;42.676;23.352;2023-05-10T09:19:07;95099.81;;;10.90;64.21
56831;BME280;42713;42.676;23.352;2023-05-10T09:21:35;95102.25;;;10.97;63.79
56831;BME280;42713;42.676;23.352;2023-05-10T09:24:05;95111.25;;;11.01;64.31
56831;BME280;42713;42.676;23.352;2023-05-10T09:26:31;95112.19;;;10.95;64.29
56831;BME280;42713;42.676;23.352;2023-05-10T09:28:58;95108.44;;;10.91;65.28
56831;BME280;42713;42.676;23.352;2023-05-10T09:31:25;95106.81;;;11.02;66.11
56831;BME280;42713;42.676;23.352;2023-05-10T09:34:08;95112.94;;;11.08;63.99
56831;BME280;42713;42.676;23.352;2023-05-10T09:36:33;95101.41;;;11.09;64.64
56831;BME280;42713;42.676;23.352;2023-05-10T09:38:58;95099.03;;;11.07;65.17
56831;BME280;42713;42.676;23.352;2023-05-10T09:41:25;95100.69;;;11.13;64.21
56831;BME280;42713;42.676;23.352;2023-05-10T09:43:55;95094.44;;;11.14;64.88
56831;BME280;42713;42.676;23.352;2023-05-10T09:46:22;95095.09;;;11.21;64.25
56831;BME280;42713;42.676;23.352;2023-05-10T09:48:52;95094.16;;;11.28;65.22
56831;BME280;42713;42.676;23.352;2023-05-10T09:51:21;95089.69;;;11.28;64.58
56831;BME280;42713;42.676;23.352;2023-05-10T09:53:47;95088.66;;;11.29;64.65
56831;BME280;42713;42.676;23.352;2023-05-10T09:56:33;95081.03;;;11.28;64.41
56831;BME280;42713;42.676;23.352;2023-05-10T09:59:03;95091.59;;;11.33;62.78
56831;BME280;42713;42.676;23.352;2023-05-10T10:01:29;95081.66;;;11.35;62.35
56831;BME280;42713;42.676;23.352;2023-05-10T10:03:54;95081.34;;;11.31;62.67
56831;BME280;42713;42.676;23.352;2023-05-10T10:06:23;95083.25;;;11.36;63.35
56831;BME280;42713;42.676;23.352;2023-05-10T10:08:49;95083.25;;;11.36;62.33
56831;BME280;42713;42.676;23.352;2023-05-10T10:11:15;95085.31;;;11.34;62.72
56831;BME280;42713;42.676;23.352;2023-05-10T10:13:41;95078.00;;;11.36;62.37
56831;BME280;42713;42.676;23.352;2023-05-10T10:16:08;95066.41;;;11.32;62.68
56831;BME280;42713;42.676;23.352;2023-05-10T10:18:33;95065.69;;;11.36;62.18
56831;BME280;42713;42.676;23.352;2023-05-10T10:21:05;95068.88;;;11.39;61.72
56831;BME280;42713;42.676;23.352;2023-05-10T10:23:31;95071.19;;;11.35;62.23
56831;BME280;42713;42.676;23.352;2023-05-10T10:25:56;95069.38;;;11.35;62.59
56831;BME280;42713;42.676;23.352;2023-05-10T10:31:02;95069.75;;;11.44;62.37
56831;BME280;42713;42.676;23.352;2023-05-10T10:36:26;95065.31;;;11.45;62.18
56831;BME280;42713;42.676;23.352;2023-05-10T10:38:59;95071.28;;;11.40;61.16
56831;BME280;42713;42.676;23.352;2023-05-10T10:41:30;95071.09;;;11.47;61.47
56831;BME280;42713;42.676;23.352;2023-05-10T10:47:21;95069.38;;;11.35;61.61
56831;BME280;42713;42.676;23.352;2023-05-10T10:50:02;95069.19;;;11.42;61.54
56831;BME280;42713;42.676;23.352;2023-05-10T10:52:33;95067.13;;;11.44;60.98
56831;BME280;42713;42.676;23.352;2023-05-10T10:55:09;95069.13;;;11.54;61.80
56831;BME280;42713;42.676;23.352;2023-05-10T10:57:55;95077.16;;;11.64;61.86
56831;BME280;42713;42.676;23.352;2023-05-10T11:03:14;95060.44;;;11.71;60.38
56831;BME280;42713;42.676;23.352;2023-05-10T11:05:47;95066.00;;;11.74;60.00
56831;BME280;42713;42.676;23.352;2023-05-10T11:08:26;95056.84;;;11.77;60.32
56831;BME280;42713;42.676;23.352;2023-05-10T11:16:15;95052.53;;;11.88;60.19
56831;BME280;42713;42.676;23.352;2023-05-10T11:18:58;95069.31;;;11.87;59.90
56831;BME280;42713;42.676;23.352;2023-05-10T11:21:24;95059.06;;;11.85;59.98
56831;BME280;42713;42.676;23.352;2023-05-10T11:23:53;95062.22;;;11.87;59.13
56831;BME280;42713;42.676;23.352;2023-05-10T11:26:26;95065.72;;;11.93;60.28
56831;BME280;42713;42.676;23.352;2023-05-10T11:28:55;95078.06;;;11.92;59.86
56831;BME280;42713;42.676;23.352;2023-05-10T11:31:21;95071.09;;;11.98;60.09
56831;BME280;42713;42.676;23.352;2023-05-10T11:33:49;95065.03;;;11.97;60.15
56831;BME280;42713;42.676;23.352;2023-05-10T11:36:17;95065.34;;;12.01;60.68
56831;BME280;42713;42.676;23.352;2023-05-10T11:38:43;95065.84;;;11.98;59.68
56831;BME280;42713;42.676;23.352;2023-05-10T11:41:10;95069.81;;;12.01;60.32
56831;BME280;42713;42.676;23.352;2023-05-10T11:43:37;95066.28;;;11.95;60.33
56831;BME280;42713;42.676;23.352;2023-05-10T11:46:11;95066.44;;;11.88;60.22
56831;BME280;42713;42.676;23.352;2023-05-10T11:48:39;95065.41;;;11.89;59.96
56831;BME280;42713;42.676;23.352;2023-05-10T11:51:06;95066.88;;;11.80;60.35
56831;BME280;42713;42.676;23.352;2023-05-10T11:53:33;95069.56;;;11.85;60.54
56831;BME280;42713;42.676;23.352;2023-05-10T11:56:06;95056.13;;;11.81;61.26
56831;BME280;42713;42.676;23.352;2023-05-10T11:58:32;95066.09;;;11.79;60.75
56831;BME280;42713;42.676;23.352;2023-05-10T12:00:58;95056.94;;;11.82;61.20
56831;BME280;42713;42.676;23.352;2023-05-10T12:03:24;95060.88;;;11.84;60.82
56831;BME280;42713;42.676;23.352;2023-05-10T12:05:50;95061.50;;;11.92;60.86
56831;BME280;42713;42.676;23.352;2023-05-10T12:08:20;95054.44;;;11.92;61.07
56831;BME280;42713;42.676;23.352;2023-05-10T12:10:46;95052.59;;;11.93;60.36
56831;BME280;42713;42.676;23.352;2023-05-10T12:13:13;95049.47;;;11.74;60.22
56831;BME280;42713;42.676;23.352;2023-05-10T12:15:39;95050.19;;;11.69;60.47
56831;BME280;42713;42.676;23.352;2023-05-10T12:18:05;95053.34;;;11.71;60.54
56831;BME280;42713;42.676;23.352;2023-05-10T12:20:31;95054.00;;;11.78;61.12
56831;BME280;42713;42.676;23.352;2023-05-10T12:22:58;95047.53;;;11.86;60.77
56831;BME280;42713;42.676;23.352;2023-05-10T12:25:30;95045.53;;;11.93;60.40
56831;BME280;42713;42.676;23.352;2023-05-10T12:27:58;95049.34;;;11.86;60.98
56831;BME280;42713;42.676;23.352;2023-05-10T12:30:27;95044.72;;;11.93;61.04
56831;BME280;42713;42.676;23.352;2023-05-10T12:32:53;95040.59;;;11.97;60.34
56831;BME280;42713;42.676;23.352;2023-05-10T12:35:19;95043.44;;;11.95;60.19
56831;BME280;42713;42.676;23.352;2023-05-10T12:37:47;95039.25;;;11.94;59.98
56831;BME280;42713;42.676;23.352;2023-05-10T12:40:13;95029.97;;;11.87;60.15
56831;BME280;42713;42.676;23.352;2023-05-10T12:42:44;95030.50;;;11.89;60.48
56831;BME280;42713;42.676;23.352;2023-05-10T12:45:43;95035.34;;;11.97;60.41
56831;BME280;42713;42.676;23.352;2023-05-10T12:48:24;95030.19;;;12.02;60.04
56831;BME280;42713;42.676;23.352;2023-05-10T12:50:50;95025.72;;;12.03;60.01
56831;BME280;42713;42.676;23.352;2023-05-10T12:53:16;95022.59;;;12.06;60.10
56831;BME280;42713;42.676;23.352;2023-05-10T12:55:45;95021.34;;;12.08;59.98
56831;BME280;42713;42.676;23.352;2023-05-10T12:58:10;95022.38;;;12.07;59.56
56831;BME280;42713;42.676;23.352;2023-05-10T13:00:36;95015.78;;;12.05;59.25
56831;BME280;42713;42.676;23.352;2023-05-10T13:03:04;95015.22;;;12.03;59.37
56831;BME280;42713;42.676;23.352;2023-05-10T13:05:34;95022.22;;;11.97;60.12
56831;BME280;42713;42.676;23.352;2023-05-10T13:07:59;95017.31;;;12.01;59.68
56831;BME280;42713;42.676;23.352;2023-05-10T13:10:25;95011.31;;;12.05;60.58
56831;BME280;42713;42.676;23.352;2023-05-10T13:12:52;95016.31;;;12.07;59.94
56831;BME280;42713;42.676;23.352;2023-05-10T13:15:17;95009.69;;;11.99;60.10
56831;BME280;42713;42.676;23.352;2023-05-10T13:17:43;95007.28;;;11.97;60.94
56831;BME280;42713;42.676;23.352;2023-05-10T13:20:09;95006.13;;;12.10;60.75
56831;BME280;42713;42.676;23.352;2023-05-10T13:22:35;95008.34;;;12.19;63.56
56831;BME280;42713;42.676;23.352;2023-05-10T13:25:01;95008.94;;;12.26;64.98